Time;durP1;ratioP1;P1;durP2;ratioP2;P2;SDS_P1;SDS_P2;PMS_P1;PMS_P2;Temp;Humidity;BMP_temperature;BMP_pressure;BME280_temperature;BME280_humidity;BME280_pressure;Samples;Min_cycle;Max_cycle;Signal;HPM_P1;HPM_P2
2022/09/29 00:01:09;;;;;;;8.30;7.50;;;6.70;91.00;;;;;;5041955;28;20435;-54
2022/09/29 00:03:38;;;;;;;8.88;7.93;;;6.70;90.90;;;;;;5031294;28;20039;-55
2022/09/29 00:06:13;;;;;;;10.00;8.95;;;6.70;91.10;;;;;;5018869;28;20032;-49
2022/09/29 00:08:41;;;;;;;10.77;8.65;;;6.80;91.30;;;;;;5035860;28;20496;-52
2022/09/29 00:11:09;;;;;;;10.35;8.93;;;6.80;91.40;;;;;;5052759;28;20055;-50
2022/09/29 00:13:39;;;;;;;10.95;8.82;;;6.90;91.60;;;;;;4994621;28;20034;-54
2022/09/29 00:16:09;;;;;;;11.27;9.82;;;6.80;91.60;;;;;;4995815;28;20432;-53
2022/09/29 00:18:39;;;;;;;9.40;8.40;;;6.90;91.50;;;;;;5012593;28;20359;-55
2022/09/29 00:21:12;;;;;;;10.70;8.63;;;6.90;91.60;;;;;;5014786;28;20041;-56
2022/09/29 00:23:38;;;;;;;10.43;9.43;;;6.90;91.60;;;;;;5010585;28;20431;-49
2022/09/29 00:26:06;;;;;;;12.38;10.05;;;6.90;91.60;;;;;;4995400;28;20076;-56
2022/09/29 00:28:33;;;;;;;10.63;9.40;;;6.90;91.60;;;;;;4995434;28;20463;-55
2022/09/29 00:31:01;;;;;;;9.57;8.57;;;6.90;91.50;;;;;;5012742;28;20555;-53
2022/09/29 00:33:35;;;;;;;9.85;8.70;;;6.80;91.40;;;;;;5028726;28;20390;-52
2022/09/29 00:36:07;;;;;;;9.90;8.90;;;6.80;91.30;;;;;;5014743;28;20033;-56
2022/09/29 00:38:35;;;;;;;10.48;9.38;;;6.70;91.20;;;;;;5014749;28;20455;-53
2022/09/29 00:41:02;;;;;;;10.77;9.68;;;6.60;91.20;;;;;;5015019;28;20038;-56
2022/09/29 00:43:56;;;;;;;9.98;8.98;;;6.60;91.30;;;;;;5013492;28;20033;-56
2022/09/29 00:46:47;;;;;;;10.15;8.35;;;6.60;91.30;;;;;;5014689;28;20663;-56
2022/09/29 00:49:39;;;;;;;10.98;9.70;;;6.60;91.30;;;;;;4980765;28;20108;-56
2022/09/29 00:52:10;;;;;;;10.23;8.63;;;6.50;91.20;;;;;;4994933;28;20574;-56
2022/09/29 00:54:47;;;;;;;10.13;9.05;;;6.50;91.30;;;;;;4979234;28;20359;-56
2022/09/29 00:57:17;;;;;;;9.38;8.02;;;6.50;91.30;;;;;;4979787;28;20037;-56
2022/09/29 01:00:00;;;;;;;10.18;8.70;;;6.50;91.20;;;;;;4987768;28;20421;-57
2022/09/29 01:02:34;;;;;;;10.32;8.88;;;6.40;91.10;;;;;;5007641;28;20049;-57
2022/09/29 01:05:02;;;;;;;10.20;8.90;;;6.40;91.10;;;;;;5010338;28;20038;-56
2022/09/29 01:07:32;;;;;;;10.48;8.48;;;6.40;91.20;;;;;;5010855;28;20042;-55
2022/09/29 01:10:01;;;;;;;10.90;8.60;;;6.30;91.20;;;;;;5012015;28;20022;-56
2022/09/29 01:12:27;;;;;;;9.82;8.13;;;6.40;91.30;;;;;;5011557;28;20511;-56
2022/09/29 01:14:54;;;;;;;9.15;7.88;;;6.30;91.20;;;;;;5031622;28;20041;-56
2022/09/29 01:17:22;;;;;;;8.77;7.88;;;6.30;91.30;;;;;;5012423;28;20065;-56
2022/09/29 01:20:15;;;;;;;9.35;8.10;;;6.40;91.30;;;;;;5029002;28;20048;-52
2022/09/29 01:23:03;;;;;;;9.52;8.52;;;6.30;91.30;;;;;;5030581;28;20039;-55
2022/09/29 01:26:02;;;;;;;8.25;7.40;;;6.30;91.30;;;;;;5031057;28;20030;-57
2022/09/29 01:28:46;;;;;;;8.32;7.38;;;6.30;91.20;;;;;;5031035;28;20473;-55
2022/09/29 01:31:31;;;;;;;7.82;7.00;;;6.20;91.20;;;;;;5013885;28;20786;-56
2022/09/29 01:34:31;;;;;;;8.43;7.05;;;6.20;91.00;;;;;;5012035;28;20033;-55
2022/09/29 01:37:29;;;;;;;7.72;6.65;;;6.10;91.10;;;;;;5031099;28;20112;-57
2022/09/29 01:40:15;;;;;;;8.43;7.30;;;6.10;91.10;;;;;;5031320;28;20026;-56
2022/09/29 01:43:03;;;;;;;9.60;7.05;;;6.10;91.00;;;;;;5012968;28;20048;-57
2022/09/29 01:45:40;;;;;;;8.65;7.18;;;6.00;90.90;;;;;;5031142;28;20036;-55
2022/09/29 01:48:17;;;;;;;9.27;7.38;;;6.00;91.00;;;;;;5012354;28;20021;-57
2022/09/29 01:50:53;;;;;;;7.38;6.68;;;6.00;90.90;;;;;;5013512;28;20038;-56
2022/09/29 01:53:48;;;;;;;8.50;7.60;;;6.00;91.00;;;;;;5012482;28;20409;-54
2022/09/29 01:56:44;;;;;;;8.65;6.90;;;5.90;91.00;;;;;;4975768;28;20457;-57
2022/09/29 01:59:34;;;;;;;8.52;7.03;;;6.00;91.20;;;;;;4993743;28;20125;-57
2022/09/29 02:02:08;;;;;;;8.20;7.40;;;6.00;91.10;;;;;;5010893;28;20032;-56
2022/09/29 02:04:41;;;;;;;8.73;6.72;;;6.00;91.10;;;;;;5010093;28;20044;-56
2022/09/29 02:07:19;;;;;;;8.27;7.35;;;6.00;91.20;;;;;;5013185;28;20036;-54
2022/09/29 02:09:51;;;;;;;8.85;7.95;;;6.00;91.20;;;;;;4998392;28;20095;-55
2022/09/29 02:12:24;;;;;;;8.13;7.10;;;6.00;91.20;;;;;;5012912;28;20033;-56
2022/09/29 02:14:52;;;;;;;8.70;7.78;;;5.90;91.20;;;;;;4995675;28;20040;-56
2022/09/29 02:17:30;;;;;;;7.18;6.30;;;5.90;91.00;;;;;;5029883;28;20028;-55
2022/09/29 02:20:02;;;;;;;8.00;7.10;;;5.90;91.20;;;;;;5011338;28;20362;-57
2022/09/29 02:22:35;;;;;;;8.57;7.68;;;5.90;91.20;;;;;;5029538;28;20034;-56
2022/09/29 02:25:03;;;;;;;9.52;6.97;;;5.90;91.00;;;;;;5029816;28;20048;-57
2022/09/29 02:27:32;;;;;;;9.45;7.57;;;5.90;91.20;;;;;;5012769;28;20141;-55
2022/09/29 02:30:00;;;;;;;;;;;5.90;91.30;;;;;;5029937;28;20049;-57
2022/09/29 02:32:37;;;;;;;9.57;7.63;;;5.90;91.40;;;;;;5030321;28;20352;-57
2022/09/29 02:35:15;;;;;;;7.90;7.10;;;5.90;91.30;;;;;;5028966;28;20479;-56
2022/09/29 02:38:06;;;;;;;9.32;7.63;;;5.90;91.30;;;;;;5028699;28;20045;-53
2022/09/29 02:40:56;;;;;;;9.10;8.10;;;5.90;91.30;;;;;;4987953;28;20359;-56
2022/09/29 02:43:59;;;;;;;8.00;7.15;;;5.80;91.20;;;;;;5010152;28;20080;-55
2022/09/29 02:46:45;;;;;;;7.95;7.00;;;5.90;91.10;;;;;;4992849;28;20037;-56
2022/09/29 02:49:49;;;;;;;8.82;7.93;;;5.80;91.20;;;;;;5017260;28;20046;-54
2022/09/29 02:52:34;;;;;;;7.70;6.88;;;5.80;91.30;;;;;;5029887;28;20101;-56
2022/09/29 02:55:12;;;;;;;9.18;7.53;;;5.80;91.30;;;;;;5029714;28;20073;-56
2022/09/29 02:58:06;;;;;;;8.40;7.50;;;5.80;91.30;;;;;;5029619;28;20462;-56
2022/09/29 03:00:34;;;;;;;8.68;7.70;;;5.80;91.40;;;;;;4997800;28;20071;-55
2022/09/29 03:03:02;;;;;;;9.63;8.32;;;5.90;91.40;;;;;;5010991;28;20061;-56
2022/09/29 03:05:39;;;;;;;9.80;8.80;;;5.80;91.40;;;;;;5027508;28;20044;-56
2022/09/29 03:08:06;;;;;;;10.77;8.90;;;5.90;91.50;;;;;;5028690;28;20087;-55
2022/09/29 03:10:32;;;;;;;10.05;9.05;;;5.90;91.60;;;;;;5007776;28;20195;-55
2022/09/29 03:12:59;;;;;;;11.07;9.52;;;5.90;91.60;;;;;;5010046;28;20545;-56
2022/09/29 03:15:28;;;;;;;11.20;10.00;;;5.90;91.70;;;;;;4992513;28;20084;-57
2022/09/29 03:17:56;;;;;;;11.05;9.95;;;5.90;91.70;;;;;;5010005;28;20030;-57
2022/09/29 03:20:25;;;;;;;11.52;9.35;;;5.90;91.90;;;;;;5027178;28;20441;-57
2022/09/29 03:22:55;;;;;;;9.60;8.60;;;5.90;91.80;;;;;;5029240;28;20032;-56
2022/09/29 03:25:22;;;;;;;11.27;9.68;;;5.90;91.90;;;;;;5029809;28;20355;-57
2022/09/29 03:27:50;;;;;;;10.30;9.20;;;5.90;91.90;;;;;;5029396;28;20439;-57
2022/09/29 03:30:18;;;;;;;10.68;9.27;;;5.90;91.90;;;;;;5028408;28;20033;-57
2022/09/29 03:32:44;;;;;;;11.82;10.05;;;5.90;91.90;;;;;;5029433;28;20478;-55
2022/09/29 03:35:14;;;;;;;12.65;10.27;;;5.90;91.90;;;;;;5028781;28;20108;-57
2022/09/29 03:37:43;;;;;;;11.45;10.25;;;5.90;91.90;;;;;;5020772;28;20037;-57
2022/09/29 03:40:10;;;;;;;11.77;9.80;;;5.90;91.90;;;;;;4990008;28;20576;-56
2022/09/29 03:42:36;;;;;;;14.52;10.43;;;5.80;91.90;;;;;;5026938;28;20112;-57
2022/09/29 03:45:02;;;;;;;12.10;10.73;;;5.90;91.90;;;;;;5029141;28;20033;-57
2022/09/29 03:47:31;;;;;;;12.55;10.48;;;5.80;91.90;;;;;;5029304;28;20132;-57
2022/09/29 03:49:57;;;;;;;12.02;10.65;;;5.90;91.90;;;;;;5010063;28;20092;-57
2022/09/29 03:52:24;;;;;;;11.25;10.15;;;5.90;91.90;;;;;;5029425;28;20080;-57
2022/09/29 03:54:49;;;;;;;11.48;10.27;;;5.80;91.80;;;;;;5011967;28;20025;-56
2022/09/29 03:57:15;;;;;;;12.13;10.88;;;5.80;91.90;;;;;;5010421;28;20040;-56
2022/09/29 03:59:42;;;;;;;11.10;9.88;;;5.90;91.90;;;;;;5011383;28;20141;-57
2022/09/29 04:02:09;;;;;;;10.60;9.50;;;5.80;91.70;;;;;;5028515;28;20030;-58
2022/09/29 04:04:36;;;;;;;12.05;10.75;;;5.80;91.70;;;;;;5026360;28;20390;-57
2022/09/29 04:07:05;;;;;;;12.70;11.40;;;5.80;91.70;;;;;;5028616;28;20029;-55
2022/09/29 04:09:30;;;;;;;11.80;10.60;;;5.70;91.70;;;;;;5028719;28;20029;-56
2022/09/29 04:11:56;;;;;;;12.65;11.35;;;5.70;91.70;;;;;;5029074;28;20156;-57
2022/09/29 04:14:23;;;;;;;14.60;11.68;;;5.70;91.70;;;;;;5027985;28;20037;-58
2022/09/29 04:16:53;;;;;;;13.52;11.73;;;5.70;91.70;;;;;;5011581;28;20360;-57
2022/09/29 04:19:23;;;;;;;12.35;10.90;;;5.70;91.60;;;;;;5010943;28;20021;-57
2022/09/29 04:21:50;;;;;;;12.98;11.57;;;5.70;91.70;;;;;;5032455;28;20107;-58
2022/09/29 04:24:16;;;;;;;12.80;11.43;;;5.70;91.70;;;;;;5031347;28;20021;-57
2022/09/29 04:26:41;;;;;;;13.60;11.77;;;5.60;91.70;;;;;;5014873;28;20493;-57
2022/09/29 04:29:07;;;;;;;12.90;11.63;;;5.70;91.80;;;;;;5014690;28;20030;-56
2022/09/29 04:31:34;;;;;;;12.05;10.85;;;5.60;91.70;;;;;;5032700;28;20462;-57
2022/09/29 04:33:59;;;;;;;11.45;10.35;;;5.60;91.70;;;;;;5029777;28;20034;-56
2022/09/29 04:36:26;;;;;;;10.85;9.75;;;5.60;91.80;;;;;;5032143;28;20029;-55
2022/09/29 04:38:55;;;;;;;15.13;10.23;;;5.60;91.80;;;;;;5032298;28;20029;-57
2022/09/29 04:41:21;;;;;;;11.35;9.90;;;5.60;91.80;;;;;;5032405;28;20108;-58
2022/09/29 04:43:47;;;;;;;11.45;10.40;;;5.60;91.70;;;;;;5031293;28;20438;-57
2022/09/29 04:46:16;;;;;;;11.50;10.40;;;5.50;91.70;;;;;;5032179;28;20025;-57
2022/09/29 04:48:46;;;;;;;11.63;10.43;;;5.50;91.70;;;;;;5032081;28;20750;-55
2022/09/29 04:51:13;;;;;;;12.43;10.60;;;5.50;91.70;;;;;;5013481;28;20037;-58
2022/09/29 04:53:40;;;;;;;13.70;12.27;;;5.50;91.80;;;;;;5014178;28;20032;-58
2022/09/29 04:56:15;;;;;;;13.35;11.98;;;5.50;91.80;;;;;;5032414;28;20029;-55
2022/09/29 04:58:42;;;;;;;12.07;10.82;;;5.50;91.70;;;;;;5014026;28;20033;-58
2022/09/29 05:01:11;;;;;;;13.45;11.32;;;5.40;91.70;;;;;;5031866;28;20026;-58
2022/09/29 05:03:45;;;;;;;12.43;11.13;;;5.40;91.70;;;;;;5014551;28;20025;-58
2022/09/29 05:06:12;;;;;;;13.45;12.05;;;5.50;91.80;;;;;;5030923;28;20043;-57
2022/09/29 05:08:38;;;;;;;14.18;11.65;;;5.50;91.80;;;;;;5031586;28;20047;-58
2022/09/29 05:11:08;;;;;;;12.82;11.55;;;5.40;91.80;;;;;;5031783;28;20025;-57
2022/09/29 05:13:39;;;;;;;12.77;11.57;;;5.40;91.80;;;;;;4998339;28;20119;-57
2022/09/29 05:16:06;;;;;;;13.20;12.00;;;5.40;91.80;;;;;;5030610;28;20025;-58
2022/09/29 05:18:33;;;;;;;12.52;11.27;;;5.40;91.90;;;;;;5031704;28;20030;-57
2022/09/29 05:21:10;;;;;;;12.45;11.25;;;5.50;91.90;;;;;;4992349;28;20038;-58
2022/09/29 05:23:37;;;;;;;13.32;12.02;;;5.50;91.90;;;;;;4980368;28;20083;-58
2022/09/29 05:26:05;;;;;;;13.32;12.13;;;5.50;91.90;;;;;;5017933;28;20102;-58
2022/09/29 05:28:32;;;;;;;12.98;11.73;;;5.50;91.90;;;;;;5028518;28;20079;-58
2022/09/29 05:31:02;;;;;;;12.93;11.70;;;5.50;91.90;;;;;;5050160;28;20414;-58
2022/09/29 05:33:30;;;;;;;12.30;11.10;;;5.50;91.80;;;;;;5033814;28;20033;-58
2022/09/29 05:35:56;;;;;;;12.60;11.30;;;5.50;91.80;;;;;;5032391;28;20056;-58
2022/09/29 05:38:25;;;;;;;12.90;10.32;;;5.50;91.80;;;;;;5011322;28;20606;-57
2022/09/29 05:40:52;;;;;;;11.10;10.00;;;5.50;91.80;;;;;;4997310;28;20029;-58
2022/09/29 05:43:22;;;;;;;11.15;10.15;;;5.50;91.80;;;;;;5031068;28;20295;-58
2022/09/29 05:45:53;;;;;;;11.55;10.45;;;5.50;91.80;;;;;;5013055;28;20447;-58
2022/09/29 05:48:20;;;;;;;12.70;11.50;;;5.50;91.80;;;;;;5030883;28;20045;-55
2022/09/29 05:50:50;;;;;;;11.55;10.45;;;5.60;91.80;;;;;;5030129;28;20041;-56
2022/09/29 05:53:15;;;;;;;11.13;10.07;;;5.50;91.70;;;;;;5030875;28;20116;-58
2022/09/29 05:55:51;;;;;;;11.40;10.40;;;5.60;91.70;;;;;;5029904;28;20112;-56
2022/09/29 05:58:18;;;;;;;11.13;9.82;;;5.60;91.70;;;;;;5030216;28;20397;-57
2022/09/29 06:00:48;;;;;;;26.63;10.32;;;5.60;91.70;;;;;;5030719;28;20018;-58
2022/09/29 06:03:13;;;;;;;;;;;5.50;91.40;;;;;;5031367;28;20641;-56
2022/09/29 06:05:40;;;;;;;11.95;8.85;;;5.40;91.50;;;;;;5028357;28;19909;-58
2022/09/29 06:08:09;;;;;;;16.23;9.63;;;5.50;91.60;;;;;;5030074;28;20040;-58
2022/09/29 06:10:37;;;;;;;21.73;9.50;;;5.50;91.60;;;;;;5044876;28;20056;-58
2022/09/29 06:13:03;;;;;;;11.15;8.93;;;5.60;91.60;;;;;;5040912;28;20082;-57
2022/09/29 06:15:30;;;;;;;14.80;8.55;;;5.50;91.60;;;;;;5012289;28;20022;-58
2022/09/29 06:18:02;;;;;;;10.52;8.35;;;5.50;91.50;;;;;;5030354;28;20075;-57
2022/09/29 06:20:32;;;;;;;14.73;9.10;;;5.60;91.60;;;;;;5028473;28;20021;-57
2022/09/29 06:23:04;;;;;;;9.10;8.23;;;5.60;91.50;;;;;;5030161;28;20041;-58
2022/09/29 06:25:31;;;;;;;9.60;7.97;;;5.50;91.50;;;;;;5021603;28;20096;-57
2022/09/29 06:28:00;;;;;;;15.23;8.15;;;5.60;91.50;;;;;;4999450;28;20038;-57
2022/09/29 06:30:27;;;;;;;8.98;8.07;;;5.60;91.50;;;;;;4994005;28;20111;-58
2022/09/29 06:32:56;;;;;;;9.27;7.68;;;5.70;91.60;;;;;;5017210;28;20450;-57
2022/09/29 06:38:08;;;;;;;9.13;8.23;;;5.60;91.40;;;;;;5018855;28;20037;-56
2022/09/29 06:40:35;;;;;;;7.20;6.50;;;5.70;91.40;;;;;;5010277;28;20030;-57
2022/09/29 06:43:01;;;;;;;8.57;7.78;;;5.70;91.30;;;;;;5012578;28;20383;-57
2022/09/29 06:45:33;;;;;;;9.23;8.32;;;5.70;91.50;;;;;;5014987;28;20124;-56
2022/09/29 06:47:59;;;;;;;8.55;7.75;;;5.90;91.60;;;;;;5012774;28;20454;-57
2022/09/29 06:50:25;;;;;;;9.63;8.10;;;5.90;91.60;;;;;;5008495;28;20138;-57
2022/09/29 06:52:52;;;;;;;9.50;7.85;;;5.90;91.30;;;;;;5029662;28;20025;-55
2022/09/29 06:55:18;;;;;;;9.48;8.48;;;6.00;91.20;;;;;;5028086;28;20036;-53
2022/09/29 06:57:45;;;;;;;10.32;8.32;;;6.00;91.40;;;;;;5029139;28;20037;-57
2022/09/29 07:00:12;;;;;;;8.77;7.88;;;6.00;91.20;;;;;;5019991;28;20025;-55
2022/09/29 07:02:38;;;;;;;8.32;7.43;;;6.10;91.20;;;;;;5020556;28;20030;-54
2022/09/29 07:05:07;;;;;;;11.80;8.13;;;6.20;91.40;;;;;;5018384;28;20374;-57
2022/09/29 07:07:35;;;;;;;8.93;7.50;;;6.20;91.10;;;;;;5017767;28;20108;-54
2022/09/29 07:10:02;;;;;;;8.57;7.78;;;6.30;91.20;;;;;;5011467;28;20200;-52
2022/09/29 07:12:28;;;;;;;8.57;7.78;;;6.30;91.10;;;;;;5008817;28;20108;-53
2022/09/29 07:14:54;;;;;;;9.32;8.27;;;6.40;91.10;;;;;;5008587;28;20060;-52
2022/09/29 07:17:21;;;;;;;9.00;7.72;;;6.50;91.10;;;;;;5004851;28;20040;-51
2022/09/29 07:19:51;;;;;;;8.63;7.18;;;6.50;91.10;;;;;;5019052;28;20034;-55
2022/09/29 07:22:20;;;;;;;7.93;7.13;;;6.50;90.90;;;;;;5006257;28;20041;-51
2022/09/29 07:24:49;;;;;;;8.90;8.00;;;6.60;91.00;;;;;;4995047;28;20037;-52
2022/09/29 07:27:22;;;;;;;9.13;8.30;;;6.70;91.10;;;;;;5028763;28;20047;-53
2022/09/29 07:29:53;;;;;;;8.73;7.93;;;6.80;91.10;;;;;;5012550;28;20037;-55
2022/09/29 07:32:20;;;;;;;9.35;8.25;;;6.90;91.10;;;;;;5026378;28;20362;-51
2022/09/29 07:34:47;;;;;;;9.68;8.68;;;6.90;90.90;;;;;;5029372;28;20447;-50
2022/09/29 07:37:13;;;;;;;10.27;8.30;;;7.00;91.10;;;;;;4993281;28;20033;-51
2022/09/29 07:39:40;;;;;;;10.93;9.57;;;7.10;91.10;;;;;;5011605;28;20566;-54
2022/09/29 07:42:07;;;;;;;10.57;9.48;;;7.20;91.30;;;;;;5010075;28;20128;-52
2022/09/29 07:44:35;;;;;;;10.05;9.07;;;7.30;91.40;;;;;;4992418;28;20034;-51
2022/09/29 07:47:01;;;;;;;11.73;9.45;;;7.40;91.30;;;;;;5010493;28;20026;-53
2022/09/29 07:49:27;;;;;;;11.07;9.93;;;7.50;91.30;;;;;;5003759;28;20374;-51
2022/09/29 07:51:54;;;;;;;13.13;11.77;;;7.60;91.20;;;;;;5026472;28;20113;-49
2022/09/29 07:54:21;;;;;;;9.95;8.77;;;7.70;91.20;;;;;;5030226;28;20358;-51
2022/09/29 07:56:48;;;;;;;11.38;10.23;;;7.80;91.20;;;;;;5033033;28;20426;-48
2022/09/29 07:59:16;;;;;;;12.00;10.80;;;7.90;91.00;;;;;;5033191;28;20029;-51
2022/09/29 08:01:42;;;;;;;12.63;10.43;;;7.90;90.80;;;;;;5029961;28;20088;-51
2022/09/29 08:04:10;;;;;;;12.77;11.48;;;8.00;90.90;;;;;;5015021;28;20053;-50
2022/09/29 08:06:38;;;;;;;12.52;10.98;;;8.20;91.00;;;;;;5030534;28;20445;-48
2022/09/29 08:09:05;;;;;;;12.85;11.23;;;8.30;91.10;;;;;;5031277;28;20029;-52
2022/09/29 08:11:37;;;;;;;15.05;13.45;;;8.50;91.20;;;;;;5030951;28;20025;-52
2022/09/29 08:14:05;;;;;;;15.13;13.50;;;8.60;91.00;;;;;;5013687;28;20043;-50
2022/09/29 08:16:33;;;;;;;16.77;13.15;;;8.70;90.90;;;;;;5011789;28;20033;-52
2022/09/29 08:19:00;;;;;;;16.02;14.38;;;8.90;90.90;;;;;;5011921;28;20026;-48
2022/09/29 08:21:30;;;;;;;14.80;12.82;;;9.00;90.90;;;;;;4992310;28;20034;-49
2022/09/29 08:23:57;;;;;;;13.48;12.07;;;9.20;90.80;;;;;;5009139;28;20044;-52
2022/09/29 08:26:30;;;;;;;14.30;11.30;;;9.30;90.70;;;;;;5020648;28;20033;-48
2022/09/29 08:28:57;;;;;;;12.48;10.70;;;9.40;90.60;;;;;;5014142;28;20120;-50
2022/09/29 08:31:24;;;;;;;12.75;11.35;;;9.50;90.60;;;;;;5011910;28;20025;-50
2022/09/29 08:33:51;;;;;;;11.93;9.85;;;9.60;90.50;;;;;;5011053;28;20033;-50
2022/09/29 08:36:19;;;;;;;13.20;10.35;;;9.70;90.10;;;;;;5027582;28;20037;-49
2022/09/29 08:38:51;;;;;;;10.98;9.35;;;9.70;90.30;;;;;;5006674;28;20033;-49
2022/09/29 08:41:38;;;;;;;11.23;10.02;;;9.80;90.10;;;;;;5011615;28;20455;-47
2022/09/29 08:44:18;;;;;;;10.82;8.70;;;9.90;90.40;;;;;;4995279;28;20044;-49
2022/09/29 08:46:53;;;;;;;;;;;10.10;90.50;;;;;;5013474;28;20022;-47
2022/09/29 08:49:41;;;;;;;10.48;8.82;;;10.20;90.40;;;;;;5032046;28;19966;-50
2022/09/29 08:52:18;;;;;;;9.80;8.80;;;10.40;90.40;;;;;;5007978;28;20181;-52
2022/09/29 08:54:49;;;;;;;10.05;8.48;;;10.50;90.10;;;;;;4979439;28;20083;-49
2022/09/29 08:57:18;;;;;;;10.85;8.68;;;10.50;90.00;;;;;;4983614;28;20030;-51
2022/09/29 09:00:08;;;;;;;10.57;9.35;;;10.60;90.10;;;;;;5014394;28;20128;-52
2022/09/29 09:03:13;;;;;;;11.98;9.70;;;10.70;90.10;;;;;;5016509;28;20049;-47
2022/09/29 09:06:04;;;;;;;10.82;8.82;;;10.90;90.30;;;;;;5031681;28;20029;-49
2022/09/29 09:09:07;;;;;;;17.85;9.65;;;11.00;90.10;;;;;;4995962;28;20037;-51
2022/09/29 09:12:08;;;;;;;19.83;10.65;;;11.10;89.90;;;;;;5011956;28;20451;-47
2022/09/29 09:14:43;;;;;;;;;;;11.30;90.00;;;;;;5012497;28;20034;-50
2022/09/29 09:17:38;;;;;;;10.20;8.38;;;11.50;90.00;;;;;;5020810;28;19937;-52
2022/09/29 09:20:38;;;;;;;12.40;9.52;;;11.60;89.90;;;;;;5031972;28;20388;-50
2022/09/29 09:23:12;;;;;;;49.40;21.88;;;11.90;89.50;;;;;;5029479;28;20179;-51
2022/09/29 09:26:05;;;;;;;50.85;20.33;;;12.30;90.00;;;;;;5031079;28;20061;-52
2022/09/29 09:28:57;;;;;;;18.83;10.10;;;12.60;89.60;;;;;;5017318;28;20029;-52
2022/09/29 09:31:31;;;;;;;36.25;18.77;;;12.70;88.10;;;;;;5014034;28;20033;-49
2022/09/29 09:34:20;;;;;;;37.40;14.98;;;12.90;88.70;;;;;;5030341;28;20446;-52
2022/09/29 09:36:51;;;;;;;11.48;7.45;;;12.90;87.60;;;;;;5011805;28;20046;-52
2022/09/29 09:39:59;;;;;;;9.98;7.15;;;12.70;86.70;;;;;;5011522;28;20435;-48
2022/09/29 09:42:30;;;;;;;24.00;11.05;;;12.60;86.60;;;;;;5004393;28;20483;-47
2022/09/29 09:45:04;;;;;;;13.43;7.45;;;12.70;87.20;;;;;;5001856;28;20041;-50
2022/09/29 09:47:57;;;;;;;11.82;6.57;;;12.50;86.80;;;;;;4994575;28;20115;-47
2022/09/29 09:50:24;;;;;;;18.48;9.82;;;12.50;87.40;;;;;;4973880;28;20046;-47
2022/09/29 09:53:18;;;;;;;7.47;6.00;;;12.60;87.40;;;;;;4983757;28;20112;-49
2022/09/29 09:56:11;;;;;;;7.05;5.78;;;12.50;86.90;;;;;;5010857;28;20050;-48
2022/09/29 09:59:12;;;;;;;11.85;7.85;;;12.40;86.80;;;;;;4993464;28;20057;-47
2022/09/29 10:01:41;;;;;;;38.85;15.98;;;12.50;87.10;;;;;;5010919;28;20026;-51
2022/09/29 10:04:17;;;;;;;15.57;8.30;;;12.60;87.80;;;;;;5010871;28;20026;-49
2022/09/29 10:06:45;;;;;;;11.65;6.40;;;12.60;87.40;;;;;;4994322;28;20042;-47
2022/09/29 10:09:15;;;;;;;14.23;6.85;;;12.40;86.70;;;;;;5008559;28;20037;-47
2022/09/29 10:11:44;;;;;;;10.55;6.93;;;12.40;86.70;;;;;;4993140;28;20041;-49
2022/09/29 10:14:16;;;;;;;9.05;6.13;;;12.30;86.70;;;;;;4991532;28;20050;-48
2022/09/29 10:17:09;;;;;;;9.38;5.85;;;12.30;87.20;;;;;;4990623;28;20033;-50
2022/09/29 10:20:07;;;;;;;7.80;5.05;;;12.30;87.30;;;;;;4991390;28;20022;-50
2022/09/29 10:22:34;;;;;;;9.13;6.50;;;12.20;87.10;;;;;;4972249;28;20052;-48
2022/09/29 10:25:28;;;;;;;22.02;10.13;;;12.20;87.40;;;;;;4989194;28;20069;-48
2022/09/29 10:27:56;;;;;;;13.15;7.22;;;12.20;87.80;;;;;;5008253;28;20053;-49
2022/09/29 10:30:33;;;;;;;16.80;8.50;;;12.20;88.10;;;;;;5015335;28;20075;-49
2022/09/29 10:33:02;;;;;;;12.38;8.13;;;12.20;87.90;;;;;;4988978;28;20289;-48
2022/09/29 10:35:51;;;;;;;15.02;8.10;;;12.20;88.10;;;;;;4981841;28;20022;-48
2022/09/29 10:38:27;;;;;;;29.52;11.32;;;12.20;87.80;;;;;;4999646;28;20040;-49
2022/09/29 10:41:03;;;;;;;16.35;10.13;;;12.20;88.00;;;;;;5010124;28;20037;-49
2022/09/29 10:43:40;;;;;;;21.63;11.05;;;12.20;88.30;;;;;;5008574;28;20022;-47
2022/09/29 10:46:38;;;;;;;68.25;26.85;;;12.30;88.60;;;;;;4993152;28;20458;-49
2022/09/29 10:49:28;;;;;;;13.57;9.35;;;12.40;88.90;;;;;;5020457;28;20103;-47
2022/09/29 10:52:27;;;;;;;9.20;8.15;;;12.50;88.90;;;;;;5010389;28;20478;-46
2022/09/29 10:55:02;;;;;;;9.27;8.27;;;12.40;88.00;;;;;;4966618;28;20050;-46
2022/09/29 10:57:39;;;;;;;31.05;13.52;;;12.40;88.00;;;;;;5010237;28;20093;-49
2022/09/29 11:00:23;;;;;;;13.43;8.90;;;12.40;88.50;;;;;;5020103;28;20082;-49
2022/09/29 11:02:50;;;;;;;9.63;8.30;;;12.40;88.30;;;;;;5014113;28;20034;-47
2022/09/29 11:05:23;;;;;;;9.75;8.25;;;12.40;88.20;;;;;;5011696;28;20029;-46
2022/09/29 11:07:52;;;;;;;9.45;7.93;;;12.40;88.10;;;;;;5000719;28;20030;-48
2022/09/29 11:10:37;;;;;;;10.43;9.48;;;12.40;88.40;;;;;;5024702;28;20041;-46
2022/09/29 11:13:30;;;;;;;8.45;7.45;;;12.40;88.50;;;;;;5028548;28;20018;-47
2022/09/29 11:16:18;;;;;;;9.35;8.20;;;12.40;88.30;;;;;;5023604;28;20037;-46
2022/09/29 11:18:49;;;;;;;8.27;6.45;;;12.40;88.50;;;;;;5011471;28;20034;-50
2022/09/29 11:21:48;;;;;;;8.38;7.47;;;12.30;88.50;;;;;;5010559;28;20033;-62
2022/09/29 11:24:33;;;;;;;8.13;6.35;;;12.20;88.90;;;;;;5028439;28;20455;-61
2022/09/29 11:27:26;;;;;;;8.38;5.85;;;12.00;88.90;;;;;;5026035;28;20048;-63
2022/09/29 11:30:16;;;;;;;6.65;4.70;;;11.90;89.10;;;;;;5024529;28;20033;-57
2022/09/29 11:33:16;;;;;;;6.88;4.22;;;11.90;89.70;;;;;;5026275;28;20037;-57
2022/09/29 11:36:00;;;;;;;6.25;3.15;;;11.80;90.10;;;;;;4989997;28;20045;-55
2022/09/29 11:38:46;;;;;;;9.35;3.67;;;11.80;90.30;;;;;;5026502;28;20036;-51
2022/09/29 11:41:36;;;;;;;6.97;4.72;;;11.90;90.70;;;;;;5025966;28;20094;-56
2022/09/29 11:44:20;;;;;;;7.70;4.25;;;11.90;90.70;;;;;;5023216;28;20030;-58
2022/09/29 11:47:12;;;;;;;8.00;4.63;;;11.90;90.50;;;;;;5008930;28;20033;-58
2022/09/29 11:49:41;;;;;;;5.10;3.83;;;11.70;90.20;;;;;;5028364;28;20077;-64
2022/09/29 11:52:30;;;;;;;4.93;3.03;;;11.70;90.60;;;;;;5026678;28;20026;-61
2022/09/29 11:55:15;;;;;;;;;;;11.60;90.60;;;;;;5028809;28;20209;-65
2022/09/29 11:58:10;;;;;;;5.57;3.25;;;11.50;90.50;;;;;;5028648;28;19963;-61
2022/09/29 12:01:10;;;;;;;2.97;1.95;;;11.40;90.60;;;;;;5011113;28;20033;-55
2022/09/29 12:03:59;;;;;;;2.17;1.13;;;11.40;91.00;;;;;;5028038;28;20056;-55
2022/09/29 12:06:59;;;;;;;2.10;1.08;;;11.50;91.10;;;;;;5027630;28;20037;-54
2022/09/29 12:10:02;;;;;;;2.53;1.08;;;11.60;91.10;;;;;;5026720;28;20091;-55
2022/09/29 12:13:01;;;;;;;2.53;1.15;;;11.50;90.70;;;;;;5028013;28;20022;-60
2022/09/29 12:15:52;;;;;;;1.23;0.60;;;11.50;90.50;;;;;;5029152;28;20080;-60
2022/09/29 12:18:30;;;;;;;2.75;1.27;;;11.40;90.60;;;;;;5027469;28;20045;-57
2022/09/29 12:20:57;;;;;;;2.13;1.00;;;11.40;90.60;;;;;;4996296;28;20033;-60
2022/09/29 12:23:28;;;;;;;1.63;0.77;;;11.40;90.60;;;;;;5010049;28;20026;-58
2022/09/29 12:26:32;;;;;;;1.70;0.80;;;11.50;90.80;;;;;;4992672;28;20037;-57
2022/09/29 12:29:07;;;;;;;3.58;0.80;;;11.50;90.70;;;;;;5006348;28;20355;-52
2022/09/29 12:31:42;;;;;;;3.05;0.70;;;11.80;91.20;;;;;;5008540;28;20034;-54
2022/09/29 12:34:21;;;;;;;1.38;0.68;;;11.80;90.40;;;;;;5016317;28;20700;-55
2022/09/29 12:37:26;;;;;;;2.72;0.70;;;11.90;90.50;;;;;;5018791;28;20025;-51
2022/09/29 12:40:08;;;;;;;2.28;0.60;;;12.10;90.40;;;;;;4995221;28;20057;-52
2022/09/29 12:42:55;;;;;;;0.70;0.50;;;12.20;90.20;;;;;;5010216;28;20351;-53
2022/09/29 12:46:12;;;;;;;1.02;0.52;;;12.10;88.90;;;;;;4981915;28;20415;-55
2022/09/29 12:49:05;;;;;;;1.67;0.52;;;12.00;89.20;;;;;;4941232;28;20096;-50
2022/09/29 12:51:45;;;;;;;1.13;0.47;;;12.20;89.60;;;;;;4937854;29;20142;-50
2022/09/29 12:54:30;;;;;;;0.95;0.50;;;12.20;89.80;;;;;;4929167;29;20110;-52
2022/09/29 12:57:14;;;;;;;1.73;0.60;;;12.30;89.60;;;;;;4929864;29;20129;-51
2022/09/29 13:00:04;;;;;;;2.70;0.70;;;12.30;89.50;;;;;;4945272;29;20031;-51
2022/09/29 13:02:54;;;;;;;2.03;0.68;;;12.30;89.50;;;;;;4946249;28;20154;-54
2022/09/29 13:06:03;;;;;;;3.63;1.90;;;12.40;89.80;;;;;;4938351;29;20027;-55
2022/09/29 13:09:06;;;;;;;1.90;1.00;;;12.40;89.80;;;;;;4940262;29;20049;-54
2022/09/29 13:11:43;;;;;;;3.30;1.00;;;12.50;90.10;;;;;;4942449;29;20035;-51
2022/09/29 13:14:46;;;;;;;3.83;1.13;;;12.50;89.80;;;;;;4930794;29;20054;-52
2022/09/29 13:17:44;;;;;;;3.10;0.90;;;12.50;90.00;;;;;;4941124;29;20040;-54
2022/09/29 13:20:31;;;;;;;3.47;1.30;;;12.60;90.20;;;;;;4926118;29;20350;-55
2022/09/29 13:23:16;;;;;;;2.42;1.20;;;12.70;90.10;;;;;;4966671;28;20048;-54
2022/09/29 13:26:07;;;;;;;2.83;1.25;;;12.70;89.90;;;;;;5011321;28;20622;-54
2022/09/29 13:28:40;;;;;;;3.88;1.65;;;12.80;90.10;;;;;;5023293;28;20034;-50
2022/09/29 13:31:31;;;;;;;3.78;1.00;;;12.80;89.90;;;;;;5003603;28;20030;-49
2022/09/29 13:34:01;;;;;;;5.93;1.30;;;12.80;89.80;;;;;;5026842;28;20033;-53